Terminal Aerodrome Forecast
Issued by NWS Billings, MT

Home | Current Version | Previous Version | Text Only | Print | Product List | Glossary Off
Versions: 1 2 3 4 5 6 7 8 9 10 11 12 13 14 15 16 17 18 19

000
FTUS45 KBYZ 282320
TAFMLS
TAF
KMLS 282320Z 2900/2924 31008KT P6SM BKN070
     FM290200 VRB05KT P6SM FEW070
     FM291800 25008KT P6SM FEW070 BKN100=

USA.gov is the U.S. government's official web portal to all federal, state and local government web resources and services.